createdAt,value
2018-08-17T00:01:46.044Z,20.54
2018-08-17T00:04:16.105Z,20.69
2018-08-17T00:06:46.267Z,20.87
2018-08-17T00:09:16.270Z,21.03
2018-08-17T00:11:46.390Z,21.07
2018-08-17T00:14:16.445Z,21.10
2018-08-17T00:16:46.491Z,21.24
2018-08-17T00:19:16.511Z,21.30
2018-08-17T00:21:46.564Z,21.34
2018-08-17T00:24:16.603Z,21.24
2018-08-17T00:26:46.674Z,21.23
2018-08-17T00:29:16.726Z,21.30
2018-08-17T00:31:46.778Z,21.34
2018-08-17T00:34:16.812Z,21.31
2018-08-17T00:36:47.742Z,21.37
2018-08-17T00:39:17.751Z,21.49
2018-08-17T00:41:47.838Z,21.47
2018-08-17T00:44:17.899Z,21.40
2018-08-17T00:46:47.968Z,21.37
2018-08-17T00:49:18.032Z,21.39
2018-08-17T00:51:48.076Z,21.25
2018-08-17T00:54:18.100Z,21.25
2018-08-17T00:56:48.134Z,21.35
2018-08-17T00:59:18.621Z,21.31
2018-08-17T01:01:48.777Z,21.38
2018-08-17T01:04:18.774Z,21.40
2018-08-17T01:06:48.790Z,21.46
2018-08-17T01:09:18.796Z,21.47
2018-08-17T01:11:48.801Z,21.55
2018-08-17T01:14:18.829Z,21.54
2018-08-17T01:16:48.882Z,21.59
2018-08-17T01:19:18.918Z,21.47
2018-08-17T01:21:48.955Z,21.51
2018-08-17T01:24:18.946Z,21.52
2018-08-17T01:26:48.986Z,21.59
2018-08-17T01:29:19.000Z,21.72
2018-08-17T01:31:48.986Z,21.68
2018-08-17T01:34:18.953Z,21.74
2018-08-17T01:36:49.008Z,21.71
2018-08-17T01:39:18.998Z,21.65
2018-08-17T01:41:48.993Z,21.66
2018-08-17T01:44:18.958Z,21.63
2018-08-17T01:46:48.969Z,21.67
2018-08-17T01:49:18.957Z,21.59
2018-08-17T01:51:49.048Z,21.60
2018-08-17T01:54:19.055Z,21.59
2018-08-17T01:56:49.096Z,21.42
2018-08-17T01:59:19.153Z,21.51
2018-08-17T02:01:49.224Z,21.44
2018-08-17T02:04:19.232Z,21.41
2018-08-17T02:06:49.293Z,21.33
2018-08-17T02:09:19.351Z,21.28
2018-08-17T02:11:49.408Z,21.23
2018-08-17T02:14:19.455Z,21.23
2018-08-17T02:16:49.505Z,21.22
2018-08-17T02:19:19.515Z,21.29
2018-08-17T02:21:49.548Z,21.31
2018-08-17T02:24:19.673Z,21.16
2018-08-17T02:26:49.685Z,21.26
2018-08-17T02:29:19.692Z,21.24
2018-08-17T02:31:49.731Z,21.28
2018-08-17T02:34:19.780Z,21.30
2018-08-17T02:36:49.813Z,21.32
2018-08-17T02:39:19.902Z,21.42
2018-08-17T02:41:49.960Z,21.52
2018-08-17T02:44:19.958Z,21.52
2018-08-17T02:46:49.975Z,21.66
2018-08-17T02:49:19.977Z,21.61
2018-08-17T02:51:49.993Z,21.60
2018-08-17T02:54:20.016Z,21.60
2018-08-17T02:56:50.025Z,21.61
2018-08-17T02:59:20.075Z,21.57
2018-08-17T03:01:50.026Z,21.53
2018-08-17T03:04:20.163Z,21.50
2018-08-17T03:06:50.185Z,21.40
2018-08-17T03:09:20.206Z,21.37
2018-08-17T03:11:50.175Z,21.27
2018-08-17T03:14:20.182Z,21.15
2018-08-17T03:16:50.794Z,21.01
2018-08-17T03:19:20.786Z,20.95
2018-08-17T03:21:50.786Z,20.84
2018-08-17T03:24:20.792Z,20.68
2018-08-17T03:26:50.802Z,20.54
2018-08-17T03:29:20.787Z,20.46
2018-08-17T03:31:50.770Z,20.32
2018-08-17T03:34:20.746Z,20.20
2018-08-17T03:36:50.724Z,20.06
2018-08-17T03:39:20.747Z,19.93
2018-08-17T03:41:50.728Z,19.80
2018-08-17T03:44:20.734Z,19.70
2018-08-17T03:46:50.735Z,19.60
2018-08-17T03:49:20.759Z,19.52
2018-08-17T03:51:50.819Z,19.44
2018-08-17T03:54:21.841Z,19.39
2018-08-17T03:56:51.832Z,19.31
2018-08-17T03:59:21.846Z,19.25
2018-08-17T04:01:51.940Z,19.17
2018-08-17T04:04:21.982Z,19.06
2018-08-17T04:06:51.987Z,19.01
2018-08-17T04:09:22.023Z,18.96
2018-08-17T04:11:52.004Z,18.93
2018-08-17T04:14:22.028Z,18.87
2018-08-17T04:16:52.028Z,18.84
2018-08-17T04:19:22.046Z,18.86
2018-08-17T04:21:52.048Z,18.87
2018-08-17T04:24:22.031Z,18.90
2018-08-17T04:26:51.994Z,18.95
2018-08-17T04:29:21.997Z,18.99
2018-08-17T04:31:51.989Z,19.03
2018-08-17T04:34:22.023Z,19.01
2018-08-17T04:36:51.986Z,18.99
2018-08-17T04:39:21.991Z,18.97
2018-08-17T04:41:52.012Z,18.92
2018-08-17T04:44:22.013Z,18.89
2018-08-17T04:46:52.259Z,18.85
2018-08-17T04:49:22.388Z,18.82
2018-08-17T04:51:52.413Z,18.75
2018-08-17T04:54:22.466Z,18.73
2018-08-17T04:56:52.452Z,18.69
2018-08-17T04:59:22.502Z,18.66
2018-08-17T05:01:52.510Z,18.63
2018-08-17T05:04:22.538Z,18.61
2018-08-17T05:06:52.514Z,18.63
2018-08-17T05:09:22.522Z,18.61
2018-08-17T05:11:52.523Z,18.60
2018-08-17T05:14:22.597Z,18.62
2018-08-17T05:16:53.026Z,18.68
2018-08-17T05:19:23.099Z,18.71
2018-08-17T05:21:53.097Z,18.74
2018-08-17T05:24:23.147Z,18.83
2018-08-17T05:26:53.172Z,18.90
2018-08-17T05:29:23.214Z,19.01
2018-08-17T05:31:53.242Z,19.13
2018-08-17T05:34:23.308Z,19.24
2018-08-17T05:36:53.324Z,19.33
2018-08-17T05:39:23.380Z,19.48
2018-08-17T05:41:53.424Z,19.58
2018-08-17T05:44:23.470Z,19.68
2018-08-17T05:46:53.472Z,19.79
2018-08-17T05:49:23.665Z,19.92
2018-08-17T05:51:53.699Z,20.02
2018-08-17T05:54:23.674Z,20.16
2018-08-17T05:56:53.704Z,20.29
2018-08-17T05:59:23.710Z,20.45
2018-08-17T06:01:53.734Z,20.63
2018-08-17T06:04:23.729Z,20.80
2018-08-17T06:06:53.727Z,20.95
2018-08-17T06:09:23.730Z,21.13
2018-08-17T06:11:53.714Z,21.30
2018-08-17T06:14:23.721Z,21.51
2018-08-17T06:16:53.766Z,21.75
2018-08-17T06:19:23.797Z,21.94
2018-08-17T06:21:53.850Z,22.12
2018-08-17T06:24:23.850Z,22.26
2018-08-17T06:26:53.872Z,22.45
2018-08-17T06:29:23.935Z,22.67
2018-08-17T06:31:53.966Z,23.06
2018-08-17T06:34:23.981Z,23.32
2018-08-17T06:36:54.003Z,23.43
2018-08-17T06:39:23.980Z,23.41
2018-08-17T06:41:53.986Z,23.44
2018-08-17T06:44:24.099Z,23.41
2018-08-17T06:46:54.206Z,23.43
2018-08-17T06:49:24.218Z,23.46
2018-08-17T06:51:54.305Z,23.53
2018-08-17T06:54:24.545Z,23.63
2018-08-17T06:56:54.777Z,23.80
2018-08-17T06:59:24.747Z,23.83
2018-08-17T07:01:54.761Z,23.88
2018-08-17T07:04:24.761Z,23.94
2018-08-17T07:06:55.277Z,24.06
2018-08-17T07:09:25.313Z,24.20
2018-08-17T07:11:55.286Z,24.24
2018-08-17T07:14:25.290Z,24.43
2018-08-17T07:16:55.457Z,24.51
2018-08-17T07:19:25.607Z,24.59
2018-08-17T07:21:55.590Z,24.69
2018-08-17T07:24:25.605Z,24.72
2018-08-17T07:26:55.681Z,24.73
2018-08-17T07:29:25.666Z,24.71
2018-08-17T07:31:55.762Z,24.83
2018-08-17T07:34:25.726Z,24.91
2018-08-17T07:36:55.713Z,24.87
2018-08-17T07:39:25.662Z,25.02
2018-08-17T07:41:55.688Z,25.04
2018-08-17T07:44:25.643Z,25.27
2018-08-17T07:46:55.645Z,25.26
2018-08-17T07:49:25.611Z,25.40
2018-08-17T07:51:55.655Z,25.34
2018-08-17T07:54:25.634Z,25.39
2018-08-17T07:56:55.639Z,25.42
2018-08-17T07:59:25.656Z,25.35
2018-08-17T08:01:55.680Z,25.34
2018-08-17T08:04:25.695Z,25.57
2018-08-17T08:06:55.717Z,25.67
2018-08-17T08:09:25.702Z,25.82
2018-08-17T08:11:55.742Z,25.86
2018-08-17T08:14:25.722Z,26.09
2018-08-17T08:16:55.755Z,26.15
2018-08-17T08:19:25.741Z,26.20
2018-08-17T08:21:55.792Z,26.26
2018-08-17T08:24:25.763Z,26.30
2018-08-17T08:26:55.762Z,26.29
2018-08-17T08:29:25.769Z,26.32
2018-08-17T08:31:55.783Z,26.41
2018-08-17T08:34:26.095Z,26.42
2018-08-17T08:36:56.134Z,26.54
2018-08-17T08:39:26.168Z,26.63
2018-08-17T08:41:56.187Z,26.72
2018-08-17T08:44:26.169Z,26.95
2018-08-17T08:46:56.172Z,27.18
2018-08-17T08:49:26.234Z,27.38
2018-08-17T08:51:56.298Z,27.42
2018-08-17T08:54:26.302Z,27.50
2018-08-17T08:56:56.283Z,27.47
2018-08-17T08:59:26.334Z,27.46
2018-08-17T09:01:56.300Z,27.56
2018-08-17T09:04:26.296Z,27.68
2018-08-17T09:06:56.276Z,27.65
2018-08-17T09:09:26.288Z,27.60
2018-08-17T09:11:56.315Z,27.72
2018-08-17T09:14:26.341Z,27.87
2018-08-17T09:16:56.314Z,28.04
2018-08-17T09:19:26.345Z,28.23
2018-08-17T09:21:56.330Z,28.46
2018-08-17T09:24:26.333Z,28.61
2018-08-17T09:26:56.321Z,28.66
2018-08-17T09:29:26.352Z,28.81
2018-08-17T09:31:56.395Z,28.87
2018-08-17T09:34:26.427Z,28.80
2018-08-17T09:36:56.425Z,28.95
2018-08-17T09:39:26.512Z,29.04
2018-08-17T09:41:56.581Z,29.16
2018-08-17T09:44:26.730Z,29.29
2018-08-17T09:46:56.847Z,29.29
2018-08-17T09:49:26.903Z,29.33
2018-08-17T09:51:56.911Z,29.50
2018-08-17T09:54:26.887Z,29.54
2018-08-17T09:56:56.863Z,29.54
2018-08-17T09:59:26.850Z,29.67
2018-08-17T10:02:01.882Z,29.86
2018-08-17T10:04:36.765Z,29.91
2018-08-17T10:07:11.807Z,30.04
2018-08-17T10:09:46.777Z,30.01
2018-08-17T10:12:16.794Z,29.95
2018-08-17T10:14:46.778Z,30.03
2018-08-17T10:17:16.733Z,30.13
2018-08-17T10:19:46.734Z,30.23
2018-08-17T10:22:16.695Z,30.15
2018-08-17T10:24:46.662Z,30.28
2018-08-17T10:27:16.668Z,30.26
2018-08-17T10:29:46.678Z,30.41
2018-08-17T10:32:16.734Z,30.34
2018-08-17T10:34:46.856Z,30.32
2018-08-17T10:37:16.864Z,30.37
2018-08-17T10:39:46.871Z,30.32
2018-08-17T10:42:16.862Z,30.38
2018-08-17T10:44:46.846Z,30.42
2018-08-17T10:47:16.845Z,30.45
2018-08-17T10:49:46.849Z,30.53
2018-08-17T10:52:16.867Z,30.58
2018-08-17T10:54:46.821Z,30.62
2018-08-17T10:57:16.881Z,30.66
2018-08-17T10:59:46.894Z,30.74
2018-08-17T11:02:16.855Z,30.65
2018-08-17T11:04:49.211Z,30.58
2018-08-17T11:07:25.227Z,30.59
2018-08-17T11:09:55.200Z,30.60
2018-08-17T11:12:25.499Z,30.56
2018-08-17T11:14:55.507Z,30.54
2018-08-17T11:17:25.496Z,30.66
2018-08-17T11:19:55.482Z,30.70
2018-08-17T11:22:25.660Z,30.78
2018-08-17T11:24:55.623Z,30.65
2018-08-17T11:27:25.687Z,30.63
2018-08-17T11:29:55.643Z,30.66
2018-08-17T11:32:25.808Z,30.75
2018-08-17T11:34:56.295Z,30.59
2018-08-17T11:37:26.454Z,30.59
2018-08-17T11:40:00.744Z,30.72
2018-08-17T11:42:48.437Z,30.80
2018-08-17T11:45:23.696Z,30.68
2018-08-17T11:47:54.458Z,30.52
2018-08-17T11:50:25.578Z,30.60
2018-08-17T11:52:58.585Z,30.70
2018-08-17T11:55:30.965Z,30.79
2018-08-17T11:58:00.929Z,30.86
2018-08-17T12:00:35.893Z,30.95
2018-08-17T12:03:07.600Z,31.04
2018-08-17T12:05:37.662Z,31.00
2018-08-17T12:08:08.075Z,31.03
2018-08-17T12:10:38.115Z,30.88
2018-08-17T12:13:13.053Z,30.97
2018-08-17T12:15:48.094Z,31.08
2018-08-17T12:18:18.113Z,31.07
2018-08-17T12:20:48.102Z,31.03
2018-08-17T12:23:18.099Z,31.10
2018-08-17T12:25:57.541Z,31.11
2018-08-17T12:28:29.714Z,31.16
2018-08-17T12:31:00.330Z,30.89
2018-08-17T12:33:30.330Z,30.78
2018-08-17T12:36:00.312Z,30.66
2018-08-17T12:38:30.260Z,30.68
2018-08-17T12:41:00.227Z,30.52
2018-08-17T12:43:37.777Z,30.59
2018-08-17T12:46:07.985Z,30.79
2018-08-17T12:48:37.938Z,30.84
2018-08-17T12:51:08.882Z,30.94
2018-08-17T12:53:38.833Z,31.02
2018-08-17T12:56:08.878Z,30.84
2018-08-17T12:58:38.810Z,30.78
2018-08-17T13:01:08.809Z,30.69
2018-08-17T13:03:38.776Z,30.78
2018-08-17T13:06:08.791Z,30.89
2018-08-17T13:08:38.764Z,30.76
2018-08-17T13:11:08.804Z,30.95
2018-08-17T13:13:38.775Z,30.92
2018-08-17T13:16:08.911Z,31.11
2018-08-17T13:18:39.495Z,31.14
2018-08-17T13:21:09.478Z,30.85
2018-08-17T13:23:39.458Z,30.96
2018-08-17T13:26:09.456Z,30.94
2018-08-17T13:28:39.442Z,31.00
2018-08-17T13:31:09.424Z,30.61
2018-08-17T13:33:39.411Z,30.85
2018-08-17T13:36:09.462Z,30.88
2018-08-17T13:38:39.420Z,30.80
2018-08-17T13:41:09.422Z,30.84
2018-08-17T13:43:39.393Z,30.82
2018-08-17T13:46:09.944Z,30.95
2018-08-17T13:48:39.932Z,30.99
2018-08-17T13:51:10.005Z,30.38
2018-08-17T13:53:40.112Z,30.54
2018-08-17T13:56:10.181Z,30.39
2018-08-17T13:58:40.198Z,30.39
2018-08-17T14:01:10.210Z,30.43
2018-08-17T14:03:41.115Z,30.35
2018-08-17T14:06:11.148Z,30.49
2018-08-17T14:08:41.154Z,30.47
2018-08-17T14:11:11.168Z,30.44
2018-08-17T14:13:41.190Z,30.48
2018-08-17T14:16:11.223Z,30.65
2018-08-17T14:18:41.254Z,30.47
2018-08-17T14:21:11.275Z,30.46
2018-08-17T14:23:41.398Z,30.46
2018-08-17T14:26:11.406Z,30.31
2018-08-17T14:28:41.767Z,30.02
2018-08-17T14:31:11.793Z,30.11
2018-08-17T14:33:41.821Z,30.15
2018-08-17T14:36:11.868Z,30.11
2018-08-17T14:38:41.895Z,30.15
2018-08-17T14:41:11.883Z,29.91
2018-08-17T14:43:41.931Z,29.78
2018-08-17T14:46:12.929Z,29.78
2018-08-17T14:48:42.988Z,29.76
2018-08-17T14:51:13.621Z,29.73
2018-08-17T14:53:43.699Z,29.65
2018-08-17T14:56:13.686Z,29.59
2018-08-17T14:58:43.715Z,29.61
2018-08-17T15:01:13.950Z,29.52
2018-08-17T15:03:45.129Z,29.55
2018-08-17T15:06:15.283Z,29.64
2018-08-17T15:08:45.476Z,29.50
2018-08-17T15:11:15.488Z,29.36
2018-08-17T15:13:45.470Z,29.46
2018-08-17T15:16:18.973Z,29.45
2018-08-17T15:18:49.248Z,29.41
2018-08-17T15:21:19.249Z,29.39
2018-08-17T15:23:49.294Z,29.47
2018-08-17T15:26:19.253Z,29.20
2018-08-17T15:28:49.302Z,28.97
2018-08-17T15:31:19.354Z,28.77
2018-08-17T15:33:49.426Z,28.65
2018-08-17T15:36:19.385Z,28.49
2018-08-17T15:38:49.466Z,28.30
2018-08-17T15:41:19.492Z,28.28
2018-08-17T15:43:49.500Z,28.27
2018-08-17T15:46:19.557Z,28.27
2018-08-17T15:48:52.481Z,28.29
2018-08-17T15:51:22.754Z,28.17
2018-08-17T15:53:52.859Z,28.10
2018-08-17T15:56:22.868Z,28.20
2018-08-17T15:58:52.884Z,28.12
2018-08-17T16:01:22.907Z,28.06
2018-08-17T16:03:52.913Z,27.92
2018-08-17T16:06:22.903Z,27.88
2018-08-17T16:08:54.833Z,27.65
2018-08-17T16:11:24.849Z,27.47
2018-08-17T16:13:55.161Z,27.38
2018-08-17T16:16:25.283Z,27.31
2018-08-17T16:18:55.231Z,27.26
2018-08-17T16:21:25.210Z,27.12
2018-08-17T16:23:55.210Z,27.20
2018-08-17T16:26:25.229Z,27.00
2018-08-17T16:28:55.250Z,26.92
2018-08-17T16:31:25.293Z,26.78
2018-08-17T16:33:55.314Z,26.73
2018-08-17T16:36:25.298Z,26.73
2018-08-17T16:38:55.296Z,26.65
2018-08-17T16:41:25.364Z,26.22
2018-08-17T16:43:55.349Z,26.29
2018-08-17T16:46:25.294Z,26.22
2018-08-17T16:48:55.350Z,26.10
2018-08-17T16:51:25.452Z,26.04
2018-08-17T16:53:55.493Z,25.82
2018-08-17T16:56:26.009Z,25.68
2018-08-17T16:58:56.288Z,25.44
2018-08-17T17:01:26.245Z,25.44
2018-08-17T17:03:56.332Z,25.23
2018-08-17T17:06:26.412Z,24.96
2018-08-17T17:09:06.036Z,24.75
2018-08-17T17:11:36.439Z,24.54
2018-08-17T17:14:06.593Z,24.19
2018-08-17T17:16:41.601Z,23.99
2018-08-17T17:19:19.099Z,23.68
2018-08-17T17:21:50.197Z,23.54
2018-08-17T17:24:20.901Z,23.39
2018-08-17T17:26:50.903Z,23.21
2018-08-17T17:29:20.908Z,23.04
2018-08-17T17:31:52.566Z,22.83
2018-08-17T17:34:22.655Z,22.74
2018-08-17T17:36:52.647Z,22.72
2018-08-17T17:39:22.695Z,22.55
2018-08-17T17:41:52.858Z,22.54
2018-08-17T17:44:22.951Z,22.51
2018-08-17T17:46:53.029Z,22.38
2018-08-17T17:49:23.910Z,22.31
2018-08-17T17:51:54.062Z,22.25
2018-08-17T17:54:26.161Z,22.22
2018-08-17T17:57:02.095Z,22.24
2018-08-17T17:59:32.364Z,22.13
2018-08-17T18:02:02.473Z,22.11
2018-08-17T18:04:36.268Z,22.11
2018-08-17T18:07:06.497Z,22.08
2018-08-17T18:09:36.474Z,22.06
2018-08-17T18:12:06.692Z,22.12
2018-08-17T18:14:37.029Z,22.06
2018-08-17T18:17:09.977Z,22.03
2018-08-17T18:19:40.032Z,22.00
2018-08-17T18:22:18.616Z,21.91
2018-08-17T18:24:48.601Z,21.83
2018-08-17T18:27:18.636Z,21.89
2018-08-17T18:29:48.579Z,21.85
2018-08-17T18:32:18.612Z,21.81
2018-08-17T18:34:48.609Z,21.77
2018-08-17T18:37:18.636Z,21.79
2018-08-17T18:39:48.628Z,21.77
2018-08-17T18:42:18.696Z,21.87
2018-08-17T18:44:48.690Z,21.81
2018-08-17T18:47:20.299Z,21.86
2018-08-17T18:49:52.134Z,21.81
2018-08-17T18:52:22.289Z,21.78
2018-08-17T18:54:52.300Z,21.70
2018-08-17T18:57:22.358Z,21.61
2018-08-17T18:59:52.360Z,21.55
2018-08-17T19:02:22.433Z,21.37
2018-08-17T19:04:52.414Z,21.27
2018-08-17T19:07:22.512Z,21.15
2018-08-17T19:09:52.477Z,21.04
2018-08-17T19:12:22.549Z,21.00
2018-08-17T19:14:52.768Z,20.92
2018-08-17T19:17:31.410Z,20.95
2018-08-17T19:20:01.486Z,20.90
2018-08-17T19:22:40.305Z,20.85
2018-08-17T19:25:12.475Z,20.80
2018-08-17T19:27:43.024Z,20.72
2018-08-17T19:30:24.321Z,20.67
2018-08-17T19:32:58.639Z,20.66
2018-08-17T19:35:28.611Z,20.57
2018-08-17T19:37:58.632Z,20.56
2018-08-17T19:40:28.644Z,20.51
2018-08-17T19:42:58.669Z,20.55
2018-08-17T19:45:29.016Z,20.53
2018-08-17T19:47:59.072Z,20.57
2018-08-17T19:50:29.114Z,20.54
2018-08-17T19:52:59.233Z,20.66
2018-08-17T19:55:29.210Z,20.59
2018-08-17T19:57:59.332Z,20.54
2018-08-17T20:00:29.330Z,20.52
2018-08-17T20:02:59.332Z,20.50
2018-08-17T20:05:29.459Z,20.46
2018-08-17T20:07:59.567Z,20.51
2018-08-17T20:10:29.829Z,20.48
2018-08-17T20:12:59.960Z,20.49
2018-08-17T20:15:30.017Z,20.46
2018-08-17T20:18:00.139Z,20.48
2018-08-17T20:20:30.150Z,20.49
2018-08-17T20:23:02.551Z,20.55
2018-08-17T20:25:32.553Z,20.57
2018-08-17T20:28:02.622Z,20.48
2018-08-17T20:30:32.637Z,20.44
2018-08-17T20:33:02.773Z,20.52
2018-08-17T20:35:32.822Z,20.53
2018-08-17T20:38:02.902Z,20.45
2018-08-17T20:40:33.023Z,20.31
2018-08-17T20:43:03.124Z,20.19
2018-08-17T20:45:33.139Z,20.10
2018-08-17T20:48:03.151Z,19.98
2018-08-17T20:50:33.249Z,19.90
2018-08-17T20:53:03.255Z,19.87
2018-08-17T20:55:33.321Z,19.84
2018-08-17T20:58:03.363Z,19.82
2018-08-17T21:00:33.545Z,19.86
2018-08-17T21:03:03.717Z,19.75
2018-08-17T21:05:33.797Z,19.66
2018-08-17T21:08:03.935Z,19.52
2018-08-17T21:10:34.023Z,19.49
2018-08-17T21:13:04.118Z,19.44
2018-08-17T21:15:34.177Z,19.39
2018-08-17T21:18:04.154Z,19.35
2018-08-17T21:20:34.169Z,19.37
2018-08-17T21:23:04.215Z,19.28
2018-08-17T21:25:34.231Z,19.27
2018-08-17T21:28:04.639Z,19.24
2018-08-17T21:30:34.655Z,19.24
2018-08-17T21:33:04.634Z,19.24
2018-08-17T21:35:34.686Z,19.25
2018-08-17T21:38:04.687Z,19.25
2018-08-17T21:40:34.726Z,19.29
2018-08-17T21:43:04.718Z,19.28
2018-08-17T21:45:34.719Z,19.26
2018-08-17T21:48:04.839Z,19.24
2018-08-17T21:50:34.858Z,19.22
2018-08-17T21:53:04.853Z,19.19
2018-08-17T21:55:34.830Z,19.09
2018-08-17T21:58:04.820Z,18.99
2018-08-17T22:00:35.069Z,18.90
2018-08-17T22:03:17.567Z,18.85
2018-08-17T22:05:47.581Z,18.74
2018-08-17T22:08:17.628Z,18.68
2018-08-17T22:10:47.679Z,18.61
2018-08-17T22:13:29.962Z,18.51
2018-08-17T22:16:00.576Z,18.39
2018-08-17T22:18:31.151Z,18.31
2018-08-17T22:21:01.158Z,18.26
2018-08-17T22:23:31.767Z,18.25
2018-08-17T22:26:01.900Z,18.23
2018-08-17T22:28:31.881Z,18.19
2018-08-17T22:31:01.893Z,18.18
2018-08-17T22:33:31.925Z,18.12
2018-08-17T22:36:02.514Z,18.10
2018-08-17T22:38:36.396Z,18.07
2018-08-17T22:41:06.406Z,18.02
2018-08-17T22:43:36.417Z,17.95
2018-08-17T22:46:06.456Z,17.95
2018-08-17T22:48:36.520Z,17.97
2018-08-17T22:51:06.595Z,17.89
2018-08-17T22:53:36.612Z,17.91
2018-08-17T22:56:06.840Z,17.87
2018-08-17T22:58:41.936Z,17.80
2018-08-17T23:01:11.955Z,17.79
2018-08-17T23:03:46.032Z,17.75
2018-08-17T23:06:16.032Z,17.74
2018-08-17T23:08:46.084Z,17.72
2018-08-17T23:11:33.296Z,17.68
2018-08-17T23:14:11.540Z,17.63
2018-08-17T23:16:41.722Z,17.61
2018-08-17T23:19:11.763Z,17.61
2018-08-17T23:21:41.780Z,17.60
2018-08-17T23:24:11.888Z,17.57
2018-08-17T23:26:41.885Z,17.53
2018-08-17T23:29:11.912Z,17.59
2018-08-17T23:31:41.946Z,17.57
2018-08-17T23:34:11.976Z,17.50
2018-08-17T23:36:41.928Z,17.52
2018-08-17T23:39:12.168Z,17.49
2018-08-17T23:41:42.574Z,17.44
2018-08-17T23:44:12.607Z,17.47
2018-08-17T23:46:49.340Z,17.43
2018-08-17T23:49:19.407Z,17.39
2018-08-17T23:51:49.464Z,17.39
2018-08-17T23:54:19.508Z,17.34
2018-08-17T23:56:49.535Z,17.31
2018-08-17T23:59:19.590Z,17.26
